• Join FlightAware (Why Join?)
  • Login
  • US Flag 
05:57PM EDT


 

Airport Tracker/Info


-or-


 

Live Flight TrackerFlight Track Log ✈ N589H ✈ 26-Feb-2014 ✈ KTCC - KPIE

Flight Track Log - Related Links

Times and Time Zones

All times are in EST time to prevent confusion due to time zone crossing. See the N589H flight status page for this flight to view local times or setup timezone preferences in your user account.

Time Position Orientation Groundspeed Altitude Reporting Facility
EST Latitude Longitude Course Direction KTS MPH feet Rate Location/Type
05:22PM 35.1233 -103.5869 104° East 205 236 6,900  Level Albuquerque Center
05:23PM 35.1158 -103.5508 104° East 208 239 7,700 1,620 Climbing Albuquerque Center
05:24PM 35.0978 -103.4775 107° East 217 250 9,600 1,860 Climbing Albuquerque Center
05:25PM 35.0792 -103.3983 106° East 235 270 11,600 1,980 Climbing Albuquerque Center
05:26PM 35.0575 -103.3044 106° East 243 280 13,800 1,860 Climbing Albuquerque Center
05:27PM 35.0372 -103.2192 106° East 254 292 15,500 1,680 Climbing Albuquerque Center
05:28PM 35.0161 -103.1308 106° East 265 305 17,300 1,500 Climbing Albuquerque Center
05:29PM 34.9925 -103.0403 108° East 275 316 18,700 1,380 Climbing Albuquerque Center
05:30PM 34.9689 -102.9481 107° East 285 328 20,200 1,440 Climbing Albuquerque Center
05:31PM 34.9453 -102.8533 107° East 290 334 21,700 1,560 Climbing Albuquerque Center
05:32PM 34.9172 -102.7389 107° East 293 337 23,500 1,500 Climbing Albuquerque Center
05:33PM 34.8933 -102.6414 107° East 297 342 24,900 1,260 Climbing Albuquerque Center
05:34PM 34.8689 -102.5422 107° East 303 349 26,200 1,080 Climbing Albuquerque Center
05:35PM 34.8450 -102.4406 106° East 310 357 27,200 960 Climbing Albuquerque Center
05:36PM 34.8169 -102.3333 108° East 328 377 28,200 1,080 Climbing Albuquerque Center
05:37PM 34.7847 -102.2025 107° East 336 387 29,500 1,020 Climbing Albuquerque Center
05:38PM 34.7556 -102.0919 108° East 341 392 30,400 840 Climbing Albuquerque Center
05:39PM 34.7281 -101.9800 107° East 347 399 31,300 780 Climbing Albuquerque Center
05:40PM 34.6997 -101.8681 107° East 349 402 32,100 720 Climbing Albuquerque Center
05:41PM 34.6708 -101.7556 107° East 351 404 32,800 480 Climbing Albuquerque Center
05:42PM 34.6344 -101.6172 108° East 357 411 33,200 300 Climbing Albuquerque Center
05:43PM 34.6033 -101.4975 107° East 369 425 33,500 240 Climbing Albuquerque Center
05:44PM 34.5719 -101.3756 107° East 376 433 33,800 240 Climbing Albuquerque Center
05:45PM 34.5406 -101.2500 107° East 385 443 34,100 240 Climbing Albuquerque Center
05:46PM 34.5086 -101.1267 107° East 386 444 34,400 240 Climbing Albuquerque Center
05:47PM 34.4756 -101.0022 108° East 389 448 34,700 240 Climbing Albuquerque Center
05:48PM 34.4358 -100.8519 108° East 391 450 35,000 120 Climbing Albuquerque Center
05:49PM 34.4022 -100.7247 108° East 396 456 35,000  Level Albuquerque Center
05:51PM 34.3669 -100.5944 108° East 403 464 35,000  Level Albuquerque Center
05:52PM 34.3311 -100.4633 108° East 409 471 35,000  Level Albuquerque Center
05:53PM 34.2967 -100.3322 108° East 411 473 35,000  Level Albuquerque Center
05:54PM 34.2311 -100.1617 115° Southeast 414 476 35,000  Level Fort Worth Center
05:55PM 34.1589 -100.0558 129° Southeast 408 470 35,000  Level Fort Worth Center
05:56PM 34.0861 -99.9456 129° Southeast 410 472 35,000  Level Fort Worth Center
05:57PM 34.0144 -99.8483 132° Southeast 398 458 35,000  Level Fort Worth Center
05:58PM 33.9422 -99.7417 129° Southeast 403 464 35,000  Level Fort Worth Center
05:59PM 33.8722 -99.6358 129° Southeast 404 465 35,000  Level Fort Worth Center
06:00PM 33.7858 -99.5119 130° Southeast 402 463 35,000  Level Fort Worth Center
06:01PM 33.7144 -99.4083 130° Southeast 402 463 35,000  Level Fort Worth Center
06:02PM 33.6439 -99.3039 129° Southeast 402 463 35,000  Level Fort Worth Center
06:03PM 33.5728 -99.2022 130° Southeast 399 459 35,000  Level Fort Worth Center
06:05PM 33.4306 -98.9958 131° Southeast 397 457 35,000  Level Fort Worth Center
06:06PM 33.3586 -98.8925 130° Southeast 400 460 35,000  Level Fort Worth Center
06:07PM 33.2731 -98.7694 130° Southeast 400 460 35,000  Level Fort Worth Center
06:08PM 33.2006 -98.6669 130° Southeast 400 460 35,000  Level Fort Worth Center
06:09PM 33.1294 -98.5639 129° Southeast 401 461 35,000  Level Fort Worth Center
06:10PM 33.0575 -98.4625 130° Southeast 400 460 35,000  Level Fort Worth Center
06:11PM 32.9786 -98.3517 130° Southeast 404 465 35,000  Level Fort Worth Center
06:12PM 32.9058 -98.2511 131° Southeast 404 465 35,000  Level Fort Worth Center
06:14PM 32.8331 -98.1486 130° Southeast 405 466 35,000  Level Fort Worth Center
06:15PM 32.7611 -98.0464 130° Southeast 405 466 35,000  Level Fort Worth Center
06:16PM 32.6992 -97.9028 117° Southeast 423 487 35,000  Level Fort Worth Center
06:17PM 32.6686 -97.7633 105° East 434 499 35,000  Level Fort Worth Center
06:18PM 32.6358 -97.6267 106° East 436 502 35,000  Level Fort Worth Center
06:19PM 32.6022 -97.4881 106° East 438 504 35,000  Level Fort Worth Center
06:20PM 32.5689 -97.3508 106° East 439 505 35,000  Level Fort Worth Center
06:21PM 32.5278 -97.1858 106° East 439 505 35,000  Level Fort Worth Center
06:22PM 32.4931 -97.0464 106° East 441 507 35,000  Level Fort Worth Center
06:23PM 32.4583 -96.9078 107° East 441 507 35,000  Level Fort Worth Center
06:24PM 32.4228 -96.7681 107° East 443 510 35,000  Level Fort Worth Center
06:25PM 32.3808 -96.5992 106° East 447 514 35,000  Level Fort Worth Center
06:26PM 32.3444 -96.4603 107° East 447 514 35,000  Level Fort Worth Center
06:27PM 32.3086 -96.3197 107° East 448 516 35,000  Level Fort Worth Center
06:28PM 32.2728 -96.1769 106° East 449 517 35,000  Level Fort Worth Center
06:29PM 32.2356 -96.0339 107° East 454 522 35,000  Level Fort Worth Center
06:30PM 32.1992 -95.8917 107° East 454 522 35,000  Level Fort Worth Center
06:31PM 32.1536 -95.7197 107° East 456 525 35,000  Level Fort Worth Center
06:32PM 32.1167 -95.5792 107° East 456 525 35,000  Level Fort Worth Center
06:33PM 32.0786 -95.4347 107° East 456 525 35,000  Level Fort Worth Center
06:34PM 32.0400 -95.2903 107° East 457 526 35,000  Level Fort Worth Center
06:35PM 32.0019 -95.1469 107° East 457 526 35,000  Level Fort Worth Center
06:36PM 31.9636 -95.0050 108° East 457 526 35,000  Level Fort Worth Center
06:37PM 31.9167 -94.8322 108° East 458 527 35,000  Level Fort Worth Center
06:38PM 31.8786 -94.6894 107° East 457 526 35,000  Level Fort Worth Center
06:39PM 31.8389 -94.5483 108° East 457 526 35,000  Level Fort Worth Center
06:40PM 31.8000 -94.4058 108° East 456 525 35,000 60 Level Fort Worth Center
06:41PM 31.7611 -94.2644 108° East 456 525 35,200 360 Climbing Fort Worth Center
06:43PM 31.7225 -94.1253 108° East 450 518 35,800 600 Climbing Fort Worth Center
06:44PM 31.6781 -93.9661 108° East 429 494 36,500 480 Climbing Fort Worth Center
06:45PM 31.6400 -93.8322 108° East 429 494 36,900 240 Climbing Fort Worth Center
06:46PM 31.6017 -93.6964 108° East 430 495 37,000  Climbing Fort Worth Center
06:47PM 31.5628 -93.5617 109° East 434 499 37,000  Level Fort Worth Center
06:48PM 31.5242 -93.4247 108° East 439 505 37,000  Level Fort Worth Center
06:49PM 31.4844 -93.2856 108° East 448 516 37,000  Level Fort Worth Center
06:50PM 31.4442 -93.1458 109° East 449 517 37,000  Level Fort Worth Center
06:51PM 31.3958 -92.9775 109° East 453 521 37,000  Level Fort Worth Center
06:52PM 31.3553 -92.8372 109° East 456 525 37,000  Level Fort Worth Center
06:53PM 31.3144 -92.6933 108° East 459 528 37,000  Level Fort Worth Center
06:54PM 31.2717 -92.5508 109° East 460 529 37,000  Level Fort Worth Center
06:55PM 31.2289 -92.4081 109° East 461 531 37,000  Level Fort Worth Center
06:56PM 31.1894 -92.2656 108° East 462 532 37,000  Level Fort Worth Center
06:57PM 31.1433 -92.1097 109° East 463 533 37,000  Level Fort Worth Center
06:58PM 31.1003 -91.9658 109° East 465 535 37,000  Level Fort Worth Center
06:59PM 31.0581 -91.8233 109° East 467 537 37,000  Level Fort Worth Center
07:00PM 31.0150 -91.6808 109° East 467 537 37,000  Level Fort Worth Center
07:02PM 30.9458 -91.4542 110° East 467 537 37,000  Level Houston Center
07:03PM 30.9028 -91.3119 109° East 467 537 37,000  Level Houston Center
07:04PM 30.8589 -91.1694 110° East 468 539 37,000  Level Houston Center
07:05PM 30.8103 -91.0111 110° East 468 539 37,000  Level Houston Center
07:06PM 30.7697 -90.8686 108° East 467 537 37,000  Level Houston Center
07:07PM 30.7239 -90.7275 111° Southeast 468 539 37,000  Level Houston Center
07:08PM 30.6717 -90.5569 110° East 467 537 37,000  Level Houston Center
07:09PM 30.6278 -90.4158 110° East 467 537 37,000  Level Houston Center
07:10PM 30.5839 -90.2758 110° East 463 533 37,000  Level Houston Center
07:11PM 30.5389 -90.1350 110° East 465 535 37,000  Level Houston Center
07:12PM 30.4950 -89.9953 110° East 462 532 37,000  Level Houston Center
07:13PM 30.4500 -89.8547 110° East 462 532 37,000  Level Houston Center
07:14PM 30.3997 -89.6942 110° East 462 532 37,000  Level Houston Center
07:15PM 30.3556 -89.5644 112° Southeast 468 539 37,000  Level Houston Center
07:16PM 30.3106 -89.4242 110° East 467 537 37,000  Level Houston Center
07:17PM 30.2561 -89.2575 111° Southeast 462 532 37,000  Level Houston Center
07:18PM 30.2111 -89.1164 110° East 466 536 37,000  Level Houston Center
07:19PM 30.1667 -88.9769 110° East 464 534 37,000  Level Houston Center
07:20PM 30.1225 -88.8381 110° East 462 532 37,000  Level Houston Center
07:21PM 30.0772 -88.6997 111° Southeast 460 529 37,000  Level Houston Center
07:22PM 30.0019 -88.5861 127° Southeast 428 493 37,000  Level Houston Center
07:23PM 29.9178 -88.4975 138° Southeast 413 475 37,000  Level Houston Center
07:24PM 29.8217 -88.3861 135° Southeast 417 480 37,000  Level Houston Center
07:25PM 29.7361 -88.2897 136° Southeast 418 481 37,000  Level Houston Center
07:26PM 29.6539 -88.1950 135° Southeast 419 482 37,000  Level Houston Center
07:27PM 29.5719 -88.1008 135° Southeast 418 481 37,000  Level Houston Center
07:29PM 29.4897 -88.0064 135° Southeast 418 481 37,000  Level Houston Center
07:30PM 29.3908 -87.8956 136° Southeast 416 479 37,000  Level Houston Center
07:31PM 29.3078 -87.8017 135° Southeast 416 479 37,000  Level Houston Center
07:32PM 29.2264 -87.7086 135° Southeast 414 476 37,000  Level Houston Center
07:33PM 29.1578 -87.5972 125° Southeast 438 504 37,000  Level Houston Center
07:34PM 29.1317 -87.4536 102° East 461 531 37,000  Level Houston Center
07:35PM 29.1036 -87.3089 102° East 466 536 37,000  Level Houston Center
07:36PM 29.0639 -87.1372 105° East 466 536 37,000  Level Houston Center
07:37PM 29.0303 -86.9950 105° East 466 536 37,000  Level Houston Center
07:38PM 28.9892 -86.8256 105° East 463 533 37,000  Level Jacksonville Center
07:39PM 28.9578 -86.6867 104° East 463 533 37,000  Level Jacksonville Center
07:40PM 28.9222 -86.5456 106° East 463 533 37,000  Level Jacksonville Center
07:41PM 28.8886 -86.4044 105° East 463 533 37,000  Level Jacksonville Center
07:42PM 28.8528 -86.2608 106° East 463 533 37,000  Level Jacksonville Center
07:43PM 28.8167 -86.1200 106° East 458 527 37,000  Level Jacksonville Center
07:44PM 28.7828 -85.9814 106° East 458 527 37,000  Level Jacksonville Center
07:45PM 28.7483 -85.8453 106° East 458 527 37,000  Level Jacksonville Center
07:46PM 28.7117 -85.7047 107° East 458 527 37,000  Level Jacksonville Center
07:47PM 28.6753 -85.5617 106° East 463 533 37,000 -720 Level Jacksonville Center
07:49PM 28.6019 -85.2717 106° East 471 542 34,800 -1,200 Descending Miami Center
07:50PM 28.5647 -85.1228 106° East 482 555 33,300 -1,800 Descending Miami Center
07:51PM 28.5256 -84.9711 106° East 492 566 31,300 -1,980 Descending Miami Center
07:52PM 28.4878 -84.8294 107° East 486 559 29,400 -2,040 Descending Miami Center
07:53PM 28.4536 -84.6925 106° East 467 537 27,300 -2,100 Descending Miami Center
07:54PM 28.4153 -84.5531 107° East 460 529 25,300 -2,040 Descending Miami Center
07:55PM 28.3825 -84.4236 106° East 454 522 23,300 -2,040 Descending Miami Center
07:56PM 28.3517 -84.2992 106° East 426 490 21,300 -2,040 Descending Miami Center
07:57PM 28.3183 -84.1767 107° East 411 473 19,300 -2,100 Descending Miami Center
07:58PM 28.2869 -84.0569 107° East 403 464 17,200 -2,220 Descending Miami Center
07:59PM 28.2469 -83.9367 111° Southeast 379 436 14,900 -2,100 Descending Miami Center
08:00PM 28.2208 -83.8339 106° East 367 422 13,100 -1,560 Descending Miami Center
08:01PM 28.1925 -83.7264 107° East 354 407 11,800 -1,140 Descending Miami Center
08:02PM 28.1661 -83.6236 106° East 348 400 10,900 -1,020 Descending Miami Center
08:03PM 28.1375 -83.5231 108° East 348 400 9,800 -1,080 Descending Miami Center
08:04PM 28.1089 -83.4225 108° East 348 400 8,800 -1,020 Descending Miami Center
08:05PM 28.0842 -83.3247 106° East 337 388 7,800 -900 Descending Miami Center
08:06PM 28.0614 -83.2269 105° East 326 375 7,000 -840 Descending Miami Center
08:07PM 28.0383 -83.1364 106° East 313 360 6,200 -1,200 Descending Miami Center
08:08PM 28.0150 -83.0481 107° East 302 348 4,700 -1,500 Descending Miami Center
08:09PM 27.9911 -82.9694 109° East 281 323 3,200 -1,440 Descending Miami Center
08:10PM 27.9631 -82.8950 113° Southeast 265 305 1,900 -1,020 Descending Miami Center
08:11PM 27.9500 -82.8500 108° East 245 282 1,600 -240 Descending Tampa TRACON
08:12PM 27.9333 -82.8000 111° Southeast 168 193 1,600  Level Tampa TRACON
08:13PM 27.9000 -82.7500 127° Southeast 161 185 1,600 -240 Level Tampa TRACON
08:14PM 27.8667 -82.7167 139° Southeast 151 174 1,200 -720 Descending Tampa TRACON
08:15PM 27.8833 -82.6833 60° Northeast 132 152 300 -1,020 Descending Tampa TRACON